Winnebago, Minnesota
Current Conditions -  °F | °C
As of 7:15 PM on Sunday 23 Nov 2014 (Local Time) from KFRM Reporting Station
Overcast Overcast  
Wind Chill: 27°   Ceiling: 10000
Heat Index: 37°   Visibility: 10mi
Dew Point: 27°   Wind: 20mph
Humidity: 65%   Direction: 310°NW
Pressure: 29.44"   Gusts: 28mph
Location:  43.77°N, 94.17°W
Report Text: KFRM 240115Z AUTO 31017G24KT 10SM SCT039 OVC100 03/M03 A2944 RMK AO1
Loading
Personal Weather Stations






























Interactive Weather Map New forecast layout! Learn more

10-Day Weather Forecast

Advertisements
Track Severe Weather on mobile